Maersk Lebu — VRJH7 — position and weather

sailwx.info

Track history (hours):
 
Tides and Currents Weather Stations Pressure Air Temp Water Temp Dewpoint Dewpoint Depression Visibility Wind Speed Wind Dir Waves Ship Positions

Maersk Lebu

Last reported at 2017-Dec-15 04:14 UTC. Time now 2017-Dec-15 04:42 UTC.
Position N 51°54' E 003°33'.

Length 300 m; draft 9.4 m.

Type: Cargo ship. MMSI: 477196800.

Date/timePositionNaut miles runAvg speedWind from/ knotsBaromVisibWave heightAir tempDewpointWater temp
2017-Dec-15 04:14N 51°54' E 003°33'0 0.0
2017-Dec-15 03:50N 51°54' E 003°33'0 0.0
2017-Dec-14 17:44N 51°54' E 003°33'0 0.0
2017-Dec-14 07:59N 51°54' E 003°33'0 0.1
2017-Dec-14 05:11N 51°54' E 003°33'1 5.7
2017-Dec-14 05:00N 51°55' E 003°32'5 9.5
2017-Dec-14 04:28N 51°55' E 003°24'4012.1
2017-Dec-14 01:11N 51°52' E 002°20'513.5
2017-Dec-14 00:48N 51°52' E 002°11'413.2
2017-Dec-14 00:31N 51°52' E 002°05'714.1
2017-Dec-14 00:00N 51°49' E 001°55'611.5
2017-Dec-13 23:30N 51°49' E 001°46'510.4
2017-Dec-13 23:00N 51°51' E 001°38'611.2
2017-Dec-13 22:30N 51°47' E 001°32'1019.3
2017-Dec-13 22:00N 51°39' E 001°23'918.8
2017-Dec-13 21:30N 51°34' E 001°11'917.8
2017-Dec-13 21:00N 51°29' E 000°59'816.6
2017-Dec-13 20:30N 51°29' E 000°45'714.0
2017-Dec-13 20:01N 51°30' E 000°34'3 5.3
2017-Dec-13 19:29N 51°30' E 000°30'0 0.0
2017-Dec-13 19:01N 51°30' E 000°30'0 0.0
2017-Dec-13 18:30N 51°30' E 000°30'0 0.0
2017-Dec-13 18:01N 51°30' E 000°30'0 0.0
2017-Dec-13 17:31N 51°30' E 000°30'0 0.0
2017-Dec-13 17:00N 51°30' E 000°30'0 0.0
2017-Dec-13 16:29N 51°30' E 000°30'0 0.0
2017-Dec-13 16:01N 51°30' E 000°30'0 0.0
2017-Dec-13 15:31N 51°30' E 000°30'0 0.0
2017-Dec-13 15:01N 51°30' E 000°30'0 0.0
2017-Dec-13 14:30N 51°30' E 000°30'0 0.0
2017-Dec-13 14:01N 51°30' E 000°30'0 0.0
2017-Dec-13 13:31N 51°30' E 000°30'0 0.0
2017-Dec-13 13:01N 51°30' E 000°30'18 2.4
2017-Dec-13 05:37N 51°29' E 000°58'216.9
2017-Dec-13 05:30N 51°30' E 001°01'917.8
2017-Dec-13 05:00N 51°34' E 001°13'917.5
2017-Dec-13 04:30N 51°39' E 001°24'816.8
2017-Dec-13 04:00N 51°46' E 001°32'713.2
2017-Dec-13 03:31N 51°52' E 001°36'4 7.6
2017-Dec-13 03:00N 51°53' E 001°42'2 3.7
2017-Dec-13 02:29N 51°55' E 001°41'0 0.1
2017-Dec-13 01:59N 51°55' E 001°42'0 0.0
2017-Dec-13 01:29N 51°55' E 001°42'0 0.0
2017-Dec-13 00:59N 51°55' E 001°42'0 0.0
2017-Dec-13 00:29N 51°55' E 001°42'0 0.0
2017-Dec-12 23:59N 51°55' E 001°42'0 0.0
2017-Dec-12 23:29N 51°55' E 001°42'0 0.0
2017-Dec-12 22:59N 51°55' E 001°42'0 0.0
2017-Dec-12 22:26N 51°55' E 001°42'0 0.0
2017-Dec-12 21:59N 51°55' E 001°42'0 0.0
2017-Dec-12 21:29N 51°55' E 001°42'0 0.0
2017-Dec-12 20:59N 51°55' E 001°42'0 0.0
2017-Dec-12 20:29N 51°55' E 001°42'0 0.0
2017-Dec-12 19:59N 51°55' E 001°42'0 0.0
2017-Dec-12 19:29N 51°54' E 001°42'0 0.3
2017-Dec-12 19:00N 51°54' E 001°42'1 1.3
2017-Dec-12 18:30N 51°54' E 001°42'5 9.4
2017-Dec-12 18:00N 51°51' E 001°48'5 9.9
2017-Dec-12 17:30N 51°51' E 001°56'611.8
2017-Dec-12 17:00N 51°53' E 002°05'1211.9
2017-Dec-12 16:00N 51°58' E 002°23'611.2
2017-Dec-12 15:27N 51°60' E 002°32'811.3
2017-Dec-12 14:45N 52°02' E 002°44'7 9.3
2017-Dec-12 14:00N 52°06' E 002°54'3611.1 290 / 121015.810.8 6.0 6.010.0
2017-Dec-12 10:46N 52°35' E 003°28'310.3
2017-Dec-12 10:30N 52°37' E 003°30'1 2.5
2017-Dec-12 10:00N 52°36' E 003°30'7531.7 040 / 151011.810.8 4.0-9.8 6.0
2017-Dec-12 09:59N 52°42' E 003°36'613.0
2017-Dec-12 09:30N 52°47' E 003°41'918.8
2017-Dec-12 09:00N 52°54' E 003°51'1019.6
2017-Dec-12 08:30N 53°01' E 004°03'1020.2
2017-Dec-12 08:00N 53°07' E 004°16'1020.6
2017-Dec-12 07:30N 53°16' E 004°26'1121.2
2017-Dec-12 07:01N 53°25' E 004°34'1021.0
2017-Dec-12 06:31N 53°31' E 004°48'1020.7
2017-Dec-12 06:01N 53°35' E 005°04'1020.6
2017-Dec-12 05:30N 53°39' E 005°21'1320.3
2017-Dec-12 04:52N 53°43' E 005°41'6719.2
2017-Dec-12 01:24N 54°00' E 007°30'1215.9
2017-Dec-12 00:40N 53°53' E 007°46'318.5
2017-Dec-12 00:31N 53°52' E 007°51'917.6
2017-Dec-12 00:01N 53°50' E 008°05'816.4
2017-Dec-11 23:30N 53°44' E 008°15'816.8
2017-Dec-11 23:00N 53°38' E 008°26'4 8.5
2017-Dec-11 22:29N 53°36' E 008°31'0 0.0
2017-Dec-11 21:59N 53°36' E 008°31'0 0.0
2017-Dec-11 21:29N 53°36' E 008°31'0 0.0
2017-Dec-11 20:59N 53°36' E 008°31'0 0.0
2017-Dec-11 20:29N 53°36' E 008°31'0 0.0
2017-Dec-11 19:59N 53°36' E 008°31'0 0.0
2017-Dec-11 19:30N 53°36' E 008°31'0 0.0
2017-Dec-11 18:59N 53°36' E 008°31'0 0.0
2017-Dec-11 18:29N 53°36' E 008°31'0 0.0
2017-Dec-11 17:59N 53°36' E 008°31'0 0.0
2017-Dec-11 17:29N 53°36' E 008°31'0 0.0
2017-Dec-11 16:59N 53°36' E 008°31'0 0.0
2017-Dec-11 16:29N 53°36' E 008°31'0 0.0
2017-Dec-11 15:59N 53°36' E 008°31'0 0.0
2017-Dec-11 15:29N 53°36' E 008°31'0 0.0
2017-Dec-11 14:59N 53°36' E 008°31'0 0.0
2017-Dec-11 14:29N 53°36' E 008°31'0 0.0
2017-Dec-11 13:59N 53°36' E 008°31'0 0.0
2017-Dec-11 13:29N 53°36' E 008°31'0 0.0
2017-Dec-11 12:59N 53°36' E 008°31'0 0.0
2017-Dec-11 12:29N 53°36' E 008°31'0 0.0
2017-Dec-11 11:59N 53°36' E 008°31'0 0.0
2017-Dec-11 11:29N 53°36' E 008°31'0 0.0
2017-Dec-11 10:56N 53°36' E 008°31'0 0.0
2017-Dec-11 10:29N 53°36' E 008°31'0 0.0
2017-Dec-11 10:00N 53°36' E 008°31'0 0.0
2017-Dec-11 09:29N 53°36' E 008°31'0 0.0
2017-Dec-11 08:59N 53°36' E 008°31'0 0.0
2017-Dec-11 08:29N 53°36' E 008°31'0 0.0
2017-Dec-11 07:59N 53°36' E 008°31'0 0.0
2017-Dec-11 07:29N 53°36' E 008°31'0 0.0
2017-Dec-11 06:59N 53°36' E 008°31'0 0.0
2017-Dec-11 06:29N 53°36' E 008°31'0 0.0
2017-Dec-11 05:59N 53°36' E 008°31'0 0.0
2017-Dec-11 05:29N 53°36' E 008°31'0 0.0
2017-Dec-11 04:59N 53°36' E 008°31'0 0.0
2017-Dec-11 04:29N 53°36' E 008°31'0 0.0
2017-Dec-11 03:59N 53°36' E 008°31'0 0.0
2017-Dec-11 03:29N 53°36' E 008°31'0 0.0
2017-Dec-11 02:59N 53°36' E 008°31'0 0.0
2017-Dec-11 02:29N 53°36' E 008°31'0 0.0
2017-Dec-11 01:59N 53°36' E 008°31'0 0.0
2017-Dec-11 01:29N 53°36' E 008°31'0 0.0
2017-Dec-11 00:59N 53°36' E 008°31'0 0.0
2017-Dec-11 00:29N 53°36' E 008°31'0 0.0
2017-Dec-10 23:59N 53°36' E 008°31'0 0.0
2017-Dec-10 23:29N 53°36' E 008°31'0 0.0
2017-Dec-10 22:59N 53°36' E 008°31'0 0.0
2017-Dec-10 22:29N 53°36' E 008°31'0 0.0
2017-Dec-10 21:59N 53°36' E 008°31'0 0.0
2017-Dec-10 21:29N 53°36' E 008°31'0 0.0
2017-Dec-10 20:59N 53°36' E 008°31'0 0.0
2017-Dec-10 20:29N 53°36' E 008°31'0 0.0
2017-Dec-10 19:59N 53°36' E 008°31'0 0.0
2017-Dec-10 19:29N 53°36' E 008°31'0 0.0
2017-Dec-10 18:59N 53°36' E 008°31'0 0.0
2017-Dec-10 18:29N 53°36' E 008°31'0 0.0
2017-Dec-10 17:59N 53°36' E 008°31'0 0.0
2017-Dec-10 17:29N 53°36' E 008°31'0 0.0
2017-Dec-10 16:59N 53°36' E 008°31'0 0.0
2017-Dec-10 16:29N 53°36' E 008°31'0 0.0
2017-Dec-10 15:59N 53°36' E 008°31'0 0.0
2017-Dec-10 15:29N 53°36' E 008°31'0 0.0
2017-Dec-10 14:59N 53°36' E 008°31'0 0.0
2017-Dec-10 14:29N 53°36' E 008°31'0 0.0
2017-Dec-10 14:00N 53°36' E 008°31'0 0.0
2017-Dec-10 13:29N 53°36' E 008°31'0 0.0
2017-Dec-10 12:59N 53°36' E 008°31'0 0.0
2017-Dec-10 12:29N 53°36' E 008°31'0 0.0
2017-Dec-10 12:00N 53°36' E 008°31'0 0.0
2017-Dec-10 11:29N 53°36' E 008°31'0 0.0
2017-Dec-10 10:59N 53°36' E 008°31'0 0.0
2017-Dec-10 10:29N 53°36' E 008°31'0 0.0
2017-Dec-10 09:59N 53°36' E 008°31'0 0.0
2017-Dec-10 09:29N 53°36' E 008°31'0 0.0
2017-Dec-10 08:59N 53°36' E 008°31'0 0.0
2017-Dec-10 08:29N 53°36' E 008°31'0 0.0
2017-Dec-10 08:00N 53°36' E 008°31'0 0.0
2017-Dec-10 07:29N 53°36' E 008°31'0 0.0
2017-Dec-10 06:59N 53°36' E 008°31'1 1.5
2017-Dec-10 06:31N 53°36' E 008°30'5 9.1
2017-Dec-10 06:00N 53°39' E 008°24'714.8
2017-Dec-10 05:30N 53°44' E 008°15'815.9
2017-Dec-10 05:00N 53°50' E 008°06'816.6
2017-Dec-10 04:30N 53°52' E 007°52'912.5
2017-Dec-10 03:48N 53°54' E 007°37'511.0
2017-Dec-10 03:18N 53°54' E 007°28'812.8
2017-Dec-10 02:42N 53°53' E 007°15'6912.5
2017-Dec-09 21:12N 53°35' E 005°23'210.3
2017-Dec-09 21:00N 53°34' E 005°20'5 9.5
2017-Dec-09 20:30N 53°31' E 005°14'611.3
2017-Dec-09 20:00N 53°31' E 005°04'5 9.3
2017-Dec-09 19:30N 53°28' E 004°60'510.5
2017-Dec-09 19:00N 53°25' E 004°52'510.2
2017-Dec-09 18:30N 53°23' E 004°44'5 9.3
2017-Dec-09 18:00N 53°20' E 004°39'5 9.0
2017-Dec-09 17:30N 53°16' E 004°35'5 9.5
2017-Dec-09 17:01N 53°11' E 004°32'5 9.6
2017-Dec-09 16:30N 53°07' E 004°28'5 9.6
2017-Dec-09 16:00N 53°03' E 004°24'5 9.7
2017-Dec-09 15:30N 52°59' E 004°20'5 9.6
2017-Dec-09 15:00N 52°54' E 004°17'510.0
2017-Dec-09 14:30N 52°50' E 004°13'5 9.5
2017-Dec-09 14:00N 52°46' E 004°08'5 9.2
2017-Dec-09 13:30N 52°42' E 004°04'5 9.0
2017-Dec-09 13:00N 52°39' E 003°60'5 9.2
2017-Dec-09 12:30N 52°35' E 003°55'5 9.5
2017-Dec-09 12:00N 52°30' E 003°55'4 8.6
2017-Dec-09 11:30N 52°26' E 003°54'4 8.7
2017-Dec-09 11:00N 52°22' E 003°53'4 8.9
2017-Dec-09 10:30N 52°17' E 003°53'4 8.8
2017-Dec-09 10:00N 52°13' E 003°54'4 9.0
2017-Dec-09 09:30N 52°08' E 003°55'510.6
2017-Dec-09 09:00N 52°03' E 003°53'2 3.4
2017-Dec-09 08:30N 52°02' E 003°55'2 3.9
2017-Dec-09 08:00N 52°02' E 003°58'4 7.5
2017-Dec-09 07:30N 51°59' E 004°03'2 3.5
2017-Dec-09 07:00N 51°58' E 004°03'0 0.3
2017-Dec-09 06:30N 51°58' E 004°03'0 0.0
2017-Dec-09 06:00N 51°58' E 004°03'0 0.0
2017-Dec-09 05:30N 51°58' E 004°03'0 0.0
2017-Dec-09 05:00N 51°58' E 004°03'0 0.0
2017-Dec-09 04:30N 51°58' E 004°03'0 0.0
2017-Dec-09 04:00N 51°58' E 004°03'0 0.0
2017-Dec-09 03:30N 51°58' E 004°03'0 0.0
2017-Dec-09 03:00N 51°58' E 004°03'0 0.0
2017-Dec-09 02:30N 51°58' E 004°03'0 0.0
2017-Dec-09 02:00N 51°58' E 004°03'0 0.0
2017-Dec-09 01:30N 51°58' E 004°03'0 0.0
2017-Dec-09 01:00N 51°58' E 004°03'0 0.0
2017-Dec-09 00:30N 51°58' E 004°03'0 0.0
2017-Dec-09 00:00N 51°58' E 004°03'0 0.0
2017-Dec-08 23:30N 51°58' E 004°03'0 0.0
2017-Dec-08 23:00N 51°58' E 004°03'0 0.0
2017-Dec-08 22:30N 51°58' E 004°03'0 0.0
2017-Dec-08 22:00N 51°58' E 004°03'0 0.0
2017-Dec-08 21:30N 51°58' E 004°03'0 0.0
2017-Dec-08 21:00N 51°58' E 004°03'0 0.0
2017-Dec-08 20:30N 51°58' E 004°03'0 0.0
2017-Dec-08 20:00N 51°58' E 004°03'0 0.5
2017-Dec-08 19:30N 51°58' E 004°03'1 2.5
2017-Dec-08 19:00N 51°58' E 004°05'4 7.1
2017-Dec-08 18:30N 51°60' E 004°00'815.2
2017-Dec-08 18:01N 52°00' E 003°48'3 5.2
2017-Dec-08 17:30N 51°60' E 003°44'1 2.4
2017-Dec-08 17:00N 51°60' E 003°46'1 1.6
2017-Dec-08 16:30N 51°59' E 003°46'4 8.8
2017-Dec-08 16:00N 51°58' E 003°39'5 9.1
2017-Dec-08 15:30N 51°57' E 003°31'4 8.7
2017-Dec-08 15:00N 51°56' E 003°24'4 8.6
2017-Dec-08 14:30N 51°55' E 003°18'714.5
2017-Dec-08 14:00N 51°53' E 003°06'917.1
2017-Dec-08 13:30N 51°50' E 002°53'1326.1
2017-Dec-08 13:00N 51°42' E 002°36'5372.8 280 / 271019.5 5.4 15.515.514.0
2017-Dec-08 12:59N 51°47' E 002°39'1117.5
2017-Dec-08 12:22N 51°39' E 002°28'717.6
2017-Dec-08 12:00N 51°34' E 002°21'917.8
2017-Dec-08 11:30N 51°27' E 002°12'815.8
2017-Dec-08 11:01N 51°20' E 002°07'815.9
2017-Dec-08 10:31N 51°13' E 002°03'917.6
2017-Dec-08 10:01N 51°09' E 001°50'917.2
2017-Dec-08 09:31N 51°03' E 001°41'816.7
2017-Dec-08 09:00N 50°56' E 001°33'816.2
2017-Dec-08 08:30N 50°49' E 001°27'816.5
2017-Dec-08 08:00N 50°41' E 001°22'917.1
2017-Dec-08 07:30N 50°36' E 001°12'917.8
2017-Dec-08 06:59N 50°30' E 001°01'919.1
2017-Dec-08 06:30N 50°26' E 000°47'1119.8
2017-Dec-08 05:56N 50°23' E 000°30'1719.5
2017-Dec-08 05:03N 50°19' E 000°04'219.6
2017-Dec-08 04:58N 50°19' E 000°01'919.4
2017-Dec-08 04:30N 50°16' W 000°12'1019.2
2017-Dec-08 03:59N 50°13' W 000°27'919.2
2017-Dec-08 03:30N 50°11' W 000°41'6121.1
2017-Dec-08 00:36N 49°56' W 002°13'222.9
2017-Dec-08 00:30N 49°55' W 002°17'1222.8
2017-Dec-07 23:58N 49°52' W 002°35'1022.4
2017-Dec-07 23:30N 49°49' W 002°50'1122.1
2017-Dec-07 23:00N 49°45' W 003°06'1122.0
2017-Dec-07 22:30N 49°39' W 003°21'1121.7
2017-Dec-07 21:59N 49°33' W 003°35'5421.7
2017-Dec-07 19:31N 49°05' W 004°46'121.2
2017-Dec-07 19:29N 49°05' W 004°47'1021.5
2017-Dec-07 19:00N 48°60' W 005°00'1019.5
2017-Dec-07 18:30N 48°55' W 005°13'1019.2
2017-Dec-07 18:00N 48°50' W 005°26'918.8
2017-Dec-07 17:30N 48°44' W 005°37'1019.0
2017-Dec-07 17:00N 48°35' W 005°43'1020.5
2017-Dec-07 16:31N 48°26' W 005°50'1220.5
2017-Dec-07 15:56N 48°16' W 005°58'920.5
2017-Dec-07 15:29N 48°08' W 006°05'1220.0
2017-Dec-07 14:54N 47°58' W 006°14'2719.7
2017-Dec-07 13:33N 47°34' W 006°32'318.5
2017-Dec-07 13:24N 47°32' W 006°33'819.7
2017-Dec-07 13:00N 47°24' W 006°36'7418.4 270 / 301026.6 2.2 12.011.014.0
2017-Dec-07 09:00N 46°18' W 007°24'16320.4 250 / 251021.8 5.4 15.0 6.915.0
2017-Dec-07 01:00N 43°54' W 009°12'23619.6 210 / 231033.5 5.4 15.011.315.0
2017-Dec-06 13:00N 40°00' W 009°48'7819.5 180 / 101039.710.8 12.010.116.0
2017-Dec-06 09:00N 38°42' W 009°48'   160 / 151034.110.8 14.5 9.717.5
Track history (hours):
 
Tides and Currents Weather Stations Pressure Air Temp Water Temp Dewpoint Dewpoint Depression Visibility Wind Speed Wind Dir Waves Ship Positions

Maersk Lebu

Last reported at 2017-Dec-15 04:14 UTC. Time now 2017-Dec-15 04:42 UTC.
Position N 51°54' E 003°33'.

Length 300 m; draft 9.4 m.

Type: Cargo ship. MMSI: 477196800.

Date/timePositionNaut miles runAvg speedWind from/ knotsBaromVisibWave heightAir tempDewpointWater temp
2017-Dec-15 04:14N 51°54' E 003°33'0 0.0
2017-Dec-15 03:50N 51°54' E 003°33'0 0.0
2017-Dec-14 17:44N 51°54' E 003°33'0 0.0
2017-Dec-14 07:59N 51°54' E 003°33'0 0.1
2017-Dec-14 05:11N 51°54' E 003°33'1 5.7
2017-Dec-14 05:00N 51°55' E 003°32'5 9.5
2017-Dec-14 04:28N 51°55' E 003°24'4012.1
2017-Dec-14 01:11N 51°52' E 002°20'513.5
2017-Dec-14 00:48N 51°52' E 002°11'413.2
2017-Dec-14 00:31N 51°52' E 002°05'714.1
2017-Dec-14 00:00N 51°49' E 001°55'611.5
2017-Dec-13 23:30N 51°49' E 001°46'510.4
2017-Dec-13 23:00N 51°51' E 001°38'611.2
2017-Dec-13 22:30N 51°47' E 001°32'1019.3
2017-Dec-13 22:00N 51°39' E 001°23'918.8
2017-Dec-13 21:30N 51°34' E 001°11'917.8
2017-Dec-13 21:00N 51°29' E 000°59'816.6
2017-Dec-13 20:30N 51°29' E 000°45'714.0
2017-Dec-13 20:01N 51°30' E 000°34'3 5.3
2017-Dec-13 19:29N 51°30' E 000°30'0 0.0
2017-Dec-13 19:01N 51°30' E 000°30'0 0.0
2017-Dec-13 18:30N 51°30' E 000°30'0 0.0
2017-Dec-13 18:01N 51°30' E 000°30'0 0.0
2017-Dec-13 17:31N 51°30' E 000°30'0 0.0
2017-Dec-13 17:00N 51°30' E 000°30'0 0.0
2017-Dec-13 16:29N 51°30' E 000°30'0 0.0
2017-Dec-13 16:01N 51°30' E 000°30'0 0.0
2017-Dec-13 15:31N 51°30' E 000°30'0 0.0
2017-Dec-13 15:01N 51°30' E 000°30'0 0.0
2017-Dec-13 14:30N 51°30' E 000°30'0 0.0
2017-Dec-13 14:01N 51°30' E 000°30'0 0.0
2017-Dec-13 13:31N 51°30' E 000°30'0 0.0
2017-Dec-13 13:01N 51°30' E 000°30'18 2.4
2017-Dec-13 05:37N 51°29' E 000°58'216.9
2017-Dec-13 05:30N 51°30' E 001°01'917.8
2017-Dec-13 05:00N 51°34' E 001°13'917.5
2017-Dec-13 04:30N 51°39' E 001°24'816.8
2017-Dec-13 04:00N 51°46' E 001°32'713.2
2017-Dec-13 03:31N 51°52' E 001°36'4 7.6
2017-Dec-13 03:00N 51°53' E 001°42'2 3.7
2017-Dec-13 02:29N 51°55' E 001°41'0 0.1
2017-Dec-13 01:59N 51°55' E 001°42'0 0.0
2017-Dec-13 01:29N 51°55' E 001°42'0 0.0
2017-Dec-13 00:59N 51°55' E 001°42'0 0.0
2017-Dec-13 00:29N 51°55' E 001°42'0 0.0
2017-Dec-12 23:59N 51°55' E 001°42'0 0.0
2017-Dec-12 23:29N 51°55' E 001°42'0 0.0
2017-Dec-12 22:59N 51°55' E 001°42'0 0.0
2017-Dec-12 22:26N 51°55' E 001°42'0 0.0
2017-Dec-12 21:59N 51°55' E 001°42'0 0.0
2017-Dec-12 21:29N 51°55' E 001°42'0 0.0
2017-Dec-12 20:59N 51°55' E 001°42'0 0.0
2017-Dec-12 20:29N 51°55' E 001°42'0 0.0
2017-Dec-12 19:59N 51°55' E 001°42'0 0.0
2017-Dec-12 19:29N 51°54' E 001°42'0 0.3
2017-Dec-12 19:00N 51°54' E 001°42'1 1.3
2017-Dec-12 18:30N 51°54' E 001°42'5 9.4
2017-Dec-12 18:00N 51°51' E 001°48'5 9.9
2017-Dec-12 17:30N 51°51' E 001°56'611.8
2017-Dec-12 17:00N 51°53' E 002°05'1211.9
2017-Dec-12 16:00N 51°58' E 002°23'611.2
2017-Dec-12 15:27N 51°60' E 002°32'811.3
2017-Dec-12 14:45N 52°02' E 002°44'7 9.3
2017-Dec-12 14:00N 52°06' E 002°54'3611.1 290 / 121015.810.8 6.0 6.010.0
2017-Dec-12 10:46N 52°35' E 003°28'310.3
2017-Dec-12 10:30N 52°37' E 003°30'1 2.5
2017-Dec-12 10:00N 52°36' E 003°30'7531.7 040 / 151011.810.8 4.0-9.8 6.0
2017-Dec-12 09:59N 52°42' E 003°36'613.0
2017-Dec-12 09:30N 52°47' E 003°41'918.8
2017-Dec-12 09:00N 52°54' E 003°51'1019.6
2017-Dec-12 08:30N 53°01' E 004°03'1020.2
2017-Dec-12 08:00N 53°07' E 004°16'1020.6
2017-Dec-12 07:30N 53°16' E 004°26'1121.2
2017-Dec-12 07:01N 53°25' E 004°34'1021.0
2017-Dec-12 06:31N 53°31' E 004°48'1020.7
2017-Dec-12 06:01N 53°35' E 005°04'1020.6
2017-Dec-12 05:30N 53°39' E 005°21'1320.3
2017-Dec-12 04:52N 53°43' E 005°41'6719.2
2017-Dec-12 01:24N 54°00' E 007°30'1215.9
2017-Dec-12 00:40N 53°53' E 007°46'318.5
2017-Dec-12 00:31N 53°52' E 007°51'917.6
2017-Dec-12 00:01N 53°50' E 008°05'816.4
2017-Dec-11 23:30N 53°44' E 008°15'816.8
2017-Dec-11 23:00N 53°38' E 008°26'4 8.5
2017-Dec-11 22:29N 53°36' E 008°31'0 0.0
2017-Dec-11 21:59N 53°36' E 008°31'0 0.0
2017-Dec-11 21:29N 53°36' E 008°31'0 0.0
2017-Dec-11 20:59N 53°36' E 008°31'0 0.0
2017-Dec-11 20:29N 53°36' E 008°31'0 0.0
2017-Dec-11 19:59N 53°36' E 008°31'0 0.0
2017-Dec-11 19:30N 53°36' E 008°31'0 0.0
2017-Dec-11 18:59N 53°36' E 008°31'0 0.0
2017-Dec-11 18:29N 53°36' E 008°31'0 0.0
2017-Dec-11 17:59N 53°36' E 008°31'0 0.0
2017-Dec-11 17:29N 53°36' E 008°31'0 0.0
2017-Dec-11 16:59N 53°36' E 008°31'0 0.0
2017-Dec-11 16:29N 53°36' E 008°31'0 0.0
2017-Dec-11 15:59N 53°36' E 008°31'0 0.0
2017-Dec-11 15:29N 53°36' E 008°31'0 0.0
2017-Dec-11 14:59N 53°36' E 008°31'0 0.0
2017-Dec-11 14:29N 53°36' E 008°31'0 0.0
2017-Dec-11 13:59N 53°36' E 008°31'0 0.0
2017-Dec-11 13:29N 53°36' E 008°31'0 0.0
2017-Dec-11 12:59N 53°36' E 008°31'0 0.0
2017-Dec-11 12:29N 53°36' E 008°31'0 0.0
2017-Dec-11 11:59N 53°36' E 008°31'0 0.0
2017-Dec-11 11:29N 53°36' E 008°31'0 0.0
2017-Dec-11 10:56N 53°36' E 008°31'0 0.0
2017-Dec-11 10:29N 53°36' E 008°31'0 0.0
2017-Dec-11 10:00N 53°36' E 008°31'0 0.0
2017-Dec-11 09:29N 53°36' E 008°31'0 0.0
2017-Dec-11 08:59N 53°36' E 008°31'0 0.0
2017-Dec-11 08:29N 53°36' E 008°31'0 0.0
2017-Dec-11 07:59N 53°36' E 008°31'0 0.0
2017-Dec-11 07:29N 53°36' E 008°31'0 0.0
2017-Dec-11 06:59N 53°36' E 008°31'0 0.0
2017-Dec-11 06:29N 53°36' E 008°31'0 0.0
2017-Dec-11 05:59N 53°36' E 008°31'0 0.0
2017-Dec-11 05:29N 53°36' E 008°31'0 0.0
2017-Dec-11 04:59N 53°36' E 008°31'0 0.0
2017-Dec-11 04:29N 53°36' E 008°31'0 0.0
2017-Dec-11 03:59N 53°36' E 008°31'0 0.0
2017-Dec-11 03:29N 53°36' E 008°31'0 0.0
2017-Dec-11 02:59N 53°36' E 008°31'0 0.0
2017-Dec-11 02:29N 53°36' E 008°31'0 0.0
2017-Dec-11 01:59N 53°36' E 008°31'0 0.0
2017-Dec-11 01:29N 53°36' E 008°31'0 0.0
2017-Dec-11 00:59N 53°36' E 008°31'0 0.0
2017-Dec-11 00:29N 53°36' E 008°31'0 0.0
2017-Dec-10 23:59N 53°36' E 008°31'0 0.0
2017-Dec-10 23:29N 53°36' E 008°31'0 0.0
2017-Dec-10 22:59N 53°36' E 008°31'0 0.0
2017-Dec-10 22:29N 53°36' E 008°31'0 0.0
2017-Dec-10 21:59N 53°36' E 008°31'0 0.0
2017-Dec-10 21:29N 53°36' E 008°31'0 0.0
2017-Dec-10 20:59N 53°36' E 008°31'0 0.0
2017-Dec-10 20:29N 53°36' E 008°31'0 0.0
2017-Dec-10 19:59N 53°36' E 008°31'0 0.0
2017-Dec-10 19:29N 53°36' E 008°31'0 0.0
2017-Dec-10 18:59N 53°36' E 008°31'0 0.0
2017-Dec-10 18:29N 53°36' E 008°31'0 0.0
2017-Dec-10 17:59N 53°36' E 008°31'0 0.0
2017-Dec-10 17:29N 53°36' E 008°31'0 0.0
2017-Dec-10 16:59N 53°36' E 008°31'0 0.0
2017-Dec-10 16:29N 53°36' E 008°31'0 0.0
2017-Dec-10 15:59N 53°36' E 008°31'0 0.0
2017-Dec-10 15:29N 53°36' E 008°31'0 0.0
2017-Dec-10 14:59N 53°36' E 008°31'0 0.0
2017-Dec-10 14:29N 53°36' E 008°31'0 0.0
2017-Dec-10 14:00N 53°36' E 008°31'0 0.0
2017-Dec-10 13:29N 53°36' E 008°31'0 0.0
2017-Dec-10 12:59N 53°36' E 008°31'0 0.0
2017-Dec-10 12:29N 53°36' E 008°31'0 0.0
2017-Dec-10 12:00N 53°36' E 008°31'0 0.0
2017-Dec-10 11:29N 53°36' E 008°31'0 0.0
2017-Dec-10 10:59N 53°36' E 008°31'0 0.0
2017-Dec-10 10:29N 53°36' E 008°31'0 0.0
2017-Dec-10 09:59N 53°36' E 008°31'0 0.0
2017-Dec-10 09:29N 53°36' E 008°31'0 0.0
2017-Dec-10 08:59N 53°36' E 008°31'0 0.0
2017-Dec-10 08:29N 53°36' E 008°31'0 0.0
2017-Dec-10 08:00N 53°36' E 008°31'0 0.0
2017-Dec-10 07:29N 53°36' E 008°31'0 0.0
2017-Dec-10 06:59N 53°36' E 008°31'1 1.5
2017-Dec-10 06:31N 53°36' E 008°30'5 9.1
2017-Dec-10 06:00N 53°39' E 008°24'714.8
2017-Dec-10 05:30N 53°44' E 008°15'815.9
2017-Dec-10 05:00N 53°50' E 008°06'816.6
2017-Dec-10 04:30N 53°52' E 007°52'912.5
2017-Dec-10 03:48N 53°54' E 007°37'511.0
2017-Dec-10 03:18N 53°54' E 007°28'812.8
2017-Dec-10 02:42N 53°53' E 007°15'6912.5
2017-Dec-09 21:12N 53°35' E 005°23'210.3
2017-Dec-09 21:00N 53°34' E 005°20'5 9.5
2017-Dec-09 20:30N 53°31' E 005°14'611.3
2017-Dec-09 20:00N 53°31' E 005°04'5 9.3
2017-Dec-09 19:30N 53°28' E 004°60'510.5
2017-Dec-09 19:00N 53°25' E 004°52'510.2
2017-Dec-09 18:30N 53°23' E 004°44'5 9.3
2017-Dec-09 18:00N 53°20' E 004°39'5 9.0
2017-Dec-09 17:30N 53°16' E 004°35'5 9.5
2017-Dec-09 17:01N 53°11' E 004°32'5 9.6
2017-Dec-09 16:30N 53°07' E 004°28'5 9.6
2017-Dec-09 16:00N 53°03' E 004°24'5 9.7
2017-Dec-09 15:30N 52°59' E 004°20'5 9.6
2017-Dec-09 15:00N 52°54' E 004°17'510.0
2017-Dec-09 14:30N 52°50' E 004°13'5 9.5
2017-Dec-09 14:00N 52°46' E 004°08'5 9.2
2017-Dec-09 13:30N 52°42' E 004°04'5 9.0
2017-Dec-09 13:00N 52°39' E 003°60'5 9.2
2017-Dec-09 12:30N 52°35' E 003°55'5 9.5
2017-Dec-09 12:00N 52°30' E 003°55'4 8.6
2017-Dec-09 11:30N 52°26' E 003°54'4 8.7
2017-Dec-09 11:00N 52°22' E 003°53'4 8.9
2017-Dec-09 10:30N 52°17' E 003°53'4 8.8
2017-Dec-09 10:00N 52°13' E 003°54'4 9.0
2017-Dec-09 09:30N 52°08' E 003°55'510.6
2017-Dec-09 09:00N 52°03' E 003°53'2 3.4
2017-Dec-09 08:30N 52°02' E 003°55'2 3.9
2017-Dec-09 08:00N 52°02' E 003°58'4 7.5
2017-Dec-09 07:30N 51°59' E 004°03'2 3.5
2017-Dec-09 07:00N 51°58' E 004°03'0 0.3
2017-Dec-09 06:30N 51°58' E 004°03'0 0.0
2017-Dec-09 06:00N 51°58' E 004°03'0 0.0
2017-Dec-09 05:30N 51°58' E 004°03'0 0.0
2017-Dec-09 05:00N 51°58' E 004°03'0 0.0
2017-Dec-09 04:30N 51°58' E 004°03'0 0.0
2017-Dec-09 04:00N 51°58' E 004°03'0 0.0
2017-Dec-09 03:30N 51°58' E 004°03'0 0.0
2017-Dec-09 03:00N 51°58' E 004°03'0 0.0
2017-Dec-09 02:30N 51°58' E 004°03'0 0.0
2017-Dec-09 02:00N 51°58' E 004°03'0 0.0
2017-Dec-09 01:30N 51°58' E 004°03'0 0.0
2017-Dec-09 01:00N 51°58' E 004°03'0 0.0
2017-Dec-09 00:30N 51°58' E 004°03'0 0.0
2017-Dec-09 00:00N 51°58' E 004°03'0 0.0
2017-Dec-08 23:30N 51°58' E 004°03'0 0.0
2017-Dec-08 23:00N 51°58' E 004°03'0 0.0
2017-Dec-08 22:30N 51°58' E 004°03'0 0.0
2017-Dec-08 22:00N 51°58' E 004°03'0 0.0
2017-Dec-08 21:30N 51°58' E 004°03'0 0.0
2017-Dec-08 21:00N 51°58' E 004°03'0 0.0
2017-Dec-08 20:30N 51°58' E 004°03'0 0.0
2017-Dec-08 20:00N 51°58' E 004°03'0 0.5
2017-Dec-08 19:30N 51°58' E 004°03'1 2.5
2017-Dec-08 19:00N 51°58' E 004°05'4 7.1
2017-Dec-08 18:30N 51°60' E 004°00'815.2
2017-Dec-08 18:01N 52°00' E 003°48'3 5.2
2017-Dec-08 17:30N 51°60' E 003°44'1 2.4
2017-Dec-08 17:00N 51°60' E 003°46'1 1.6
2017-Dec-08 16:30N 51°59' E 003°46'4 8.8
2017-Dec-08 16:00N 51°58' E 003°39'5 9.1
2017-Dec-08 15:30N 51°57' E 003°31'4 8.7
2017-Dec-08 15:00N 51°56' E 003°24'4 8.6
2017-Dec-08 14:30N 51°55' E 003°18'714.5
2017-Dec-08 14:00N 51°53' E 003°06'917.1
2017-Dec-08 13:30N 51°50' E 002°53'1326.1
2017-Dec-08 13:00N 51°42' E 002°36'5372.8 280 / 271019.5 5.4 15.515.514.0
2017-Dec-08 12:59N 51°47' E 002°39'1117.5
2017-Dec-08 12:22N 51°39' E 002°28'717.6
2017-Dec-08 12:00N 51°34' E 002°21'917.8
2017-Dec-08 11:30N 51°27' E 002°12'815.8
2017-Dec-08 11:01N 51°20' E 002°07'815.9
2017-Dec-08 10:31N 51°13' E 002°03'917.6
2017-Dec-08 10:01N 51°09' E 001°50'917.2
2017-Dec-08 09:31N 51°03' E 001°41'816.7
2017-Dec-08 09:00N 50°56' E 001°33'816.2
2017-Dec-08 08:30N 50°49' E 001°27'816.5
2017-Dec-08 08:00N 50°41' E 001°22'917.1
2017-Dec-08 07:30N 50°36' E 001°12'917.8
2017-Dec-08 06:59N 50°30' E 001°01'919.1
2017-Dec-08 06:30N 50°26' E 000°47'1119.8
2017-Dec-08 05:56N 50°23' E 000°30'1719.5
2017-Dec-08 05:03N 50°19' E 000°04'219.6
2017-Dec-08 04:58N 50°19' E 000°01'919.4
2017-Dec-08 04:30N 50°16' W 000°12'1019.2
2017-Dec-08 03:59N 50°13' W 000°27'919.2
2017-Dec-08 03:30N 50°11' W 000°41'6121.1
2017-Dec-08 00:36N 49°56' W 002°13'222.9
2017-Dec-08 00:30N 49°55' W 002°17'1222.8
2017-Dec-07 23:58N 49°52' W 002°35'1022.4
2017-Dec-07 23:30N 49°49' W 002°50'1122.1
2017-Dec-07 23:00N 49°45' W 003°06'1122.0
2017-Dec-07 22:30N 49°39' W 003°21'1121.7
2017-Dec-07 21:59N 49°33' W 003°35'5421.7
2017-Dec-07 19:31N 49°05' W 004°46'121.2
2017-Dec-07 19:29N 49°05' W 004°47'1021.5
2017-Dec-07 19:00N 48°60' W 005°00'1019.5
2017-Dec-07 18:30N 48°55' W 005°13'1019.2
2017-Dec-07 18:00N 48°50' W 005°26'918.8
2017-Dec-07 17:30N 48°44' W 005°37'1019.0
2017-Dec-07 17:00N 48°35' W 005°43'1020.5
2017-Dec-07 16:31N 48°26' W 005°50'1220.5
2017-Dec-07 15:56N 48°16' W 005°58'920.5
2017-Dec-07 15:29N 48°08' W 006°05'1220.0
2017-Dec-07 14:54N 47°58' W 006°14'2719.7
2017-Dec-07 13:33N 47°34' W 006°32'318.5
2017-Dec-07 13:24N 47°32' W 006°33'819.7
2017-Dec-07 13:00N 47°24' W 006°36'7418.4 270 / 301026.6 2.2 12.011.014.0
2017-Dec-07 09:00N 46°18' W 007°24'16320.4 250 / 251021.8 5.4 15.0 6.915.0
2017-Dec-07 01:00N 43°54' W 009°12'23619.6 210 / 231033.5 5.4 15.011.315.0
2017-Dec-06 13:00N 40°00' W 009°48'7819.5 180 / 101039.710.8 12.010.116.0
2017-Dec-06 09:00N 38°42' W 009°48'   160 / 151034.110.8 14.5 9.717.5

Dump ship's entire track history